LFMK/CCF METAR and TAF weather

Enter ICAO airport designator
Station Type Date Time Source
LFMK METAR 2022/01/23 12:30 UTC NOAA

LFMK 231230Z AUTO 08012KT CAVOK 11/00 Q1027 NOSIG


Station Type Date Time Source
LFMK Decoded METAR 2022/01/23 12:30 UTC NOAA

Carcassonne, France (LFMK) 43-13N 002-19E 130M
Jan 23, 2022 - 07:30 AM EST / 2022.01.23 1230 UTC
Wind: from the E (080 degrees) at 14 MPH (12 KT):0
Visibility: greater than 7 mile(s):0
Temperature: 51 F (11 C)
Dew Point: 32 F (0 C)
Relative Humidity: 46%
Pressure (altimeter): 30.33 in. Hg (1027 hPa)
ob: LFMK 231230Z AUTO 08012KT CAVOK 11/00 Q1027 NOSIG
cycle: 12

Station Type Date Time Source
LFMK TAF 2022/01/23 09:26 UTC NOAA

TAF LFMK 230800Z 2309/2409 VRB03KT CAVOK
BECMG 2309/2311 10012KT
TEMPO 2402/2409 BKN010

Example: see airport list